Time;durP1;ratioP1;P1;durP2;ratioP2;P2;SDS_P1;SDS_P2;PMS_P1;PMS_P2;Temp;Humidity;BMP_temperature;BMP_pressure;BME280_temperature;BME280_humidity;BME280_pressure;Samples;Min_cycle;Max_cycle;Signal;HPM_P1;HPM_P2
2022/12/15 00:38:42;;;;;;;4.47;4.17;;;1.10;99.90;;;;;;4931408;29;20251;-62
2022/12/15 00:41:09;;;;;;;4.77;4.47;;;1.10;99.90;;;;;;4929583;28;20223;-63
2022/12/15 00:43:36;;;;;;;4.40;4.20;;;1.20;99.90;;;;;;4931101;29;20215;-62
2022/12/15 00:48:48;;;;;;;4.60;4.30;;;1.10;99.90;;;;;;4929574;29;20226;-62
2022/12/15 00:51:15;;;;;;;4.27;4.07;;;1.00;99.90;;;;;;4930900;28;20212;-63
2022/12/15 01:21:12;;;;;;;5.10;4.80;;;0.80;99.90;;;;;;4931555;29;20269;-63
2022/12/15 01:23:39;;;;;;;4.97;4.67;;;0.70;99.90;;;;;;4931350;28;20212;-63
2022/12/15 01:26:08;;;;;;;4.50;4.20;;;0.70;99.90;;;;;;4932366;28;20227;-65
2022/12/15 01:28:35;;;;;;;4.73;4.43;;;0.70;99.90;;;;;;4923226;29;20228;-63
2022/12/15 01:31:02;;;;;;;4.07;3.87;;;0.60;99.90;;;;;;4931334;28;20208;-65
2022/12/15 01:33:28;;;;;;;4.47;4.17;;;0.60;99.90;;;;;;4924537;28;20222;-64
2022/12/15 01:35:57;;;;;;;4.40;4.17;;;0.60;99.90;;;;;;4930148;29;20238;-63
2022/12/15 01:38:24;;;;;;;4.60;4.30;;;0.50;99.90;;;;;;4923473;28;20234;-63
2022/12/15 01:40:51;;;;;;;3.97;3.78;;;0.50;99.90;;;;;;4931308;28;20214;-62
2022/12/15 01:43:22;;;;;;;4.43;4.23;;;0.50;99.90;;;;;;4931250;28;20211;-64
2022/12/15 01:46:04;;;;;;;4.53;4.23;;;0.50;99.90;;;;;;4931947;29;20200;-63
2022/12/15 01:48:38;;;;;;;4.30;4.10;;;0.50;99.90;;;;;;4925508;28;20220;-64
2022/12/15 01:51:14;;;;;;;4.27;4.07;;;0.60;99.90;;;;;;4932288;28;20284;-62
2022/12/15 01:53:47;;;;;;;4.80;4.50;;;0.60;99.90;;;;;;5000194;28;20291;-64
2022/12/15 01:56:15;;;;;;;4.57;4.27;;;0.60;99.90;;;;;;4946670;28;20220;-64
2022/12/15 01:58:49;;;;;;;4.67;4.37;;;0.50;99.90;;;;;;4936768;29;20322;-64
2022/12/15 02:01:15;;;;;;;4.37;4.13;;;0.50;99.90;;;;;;4934809;29;20196;-64
2022/12/15 02:03:44;;;;;;;4.63;4.37;;;0.50;99.90;;;;;;4934576;29;20218;-64
2022/12/15 02:06:12;;;;;;;4.77;4.47;;;0.50;99.90;;;;;;4933386;28;20204;-65
2022/12/15 02:08:40;;;;;;;4.10;3.90;;;0.60;99.90;;;;;;4931036;29;20226;-63
2022/12/15 02:11:34;;;;;;;4.20;4.00;;;0.50;99.90;;;;;;4930470;29;20208;-64
2022/12/15 02:14:04;;;;;;;4.45;4.18;;;0.60;99.90;;;;;;4927443;28;20196;-63
2022/12/15 02:16:47;;;;;;;4.50;4.27;;;0.70;99.90;;;;;;4929407;28;20220;-64
2022/12/15 02:19:43;;;;;;;4.90;4.60;;;0.80;99.90;;;;;;4954252;28;20527;-63
2022/12/15 02:22:22;;;;;;;4.30;4.10;;;0.80;99.90;;;;;;4930520;28;20214;-64
2022/12/15 02:25:09;;;;;;;3.87;3.67;;;0.90;99.90;;;;;;4928326;28;20200;-63
2022/12/15 02:27:58;;;;;;;5.20;4.90;;;0.90;99.90;;;;;;4924105;28;20850;-65
2022/12/15 02:30:40;;;;;;;4.87;4.57;;;0.80;99.90;;;;;;4949819;28;20230;-64
2022/12/15 02:33:13;;;;;;;4.70;4.40;;;0.70;99.90;;;;;;4930654;28;20425;-63
2022/12/15 02:35:49;;;;;;;4.80;4.50;;;0.70;99.90;;;;;;4931555;28;20224;-64
2022/12/15 02:38:31;;;;;;;4.20;4.00;;;0.70;99.90;;;;;;4938775;28;20322;-65
2022/12/15 02:40:59;;;;;;;4.80;4.50;;;0.60;99.90;;;;;;4949531;28;20221;-63
2022/12/15 02:43:27;;;;;;;4.23;3.93;;;0.60;99.90;;;;;;4934639;28;20211;-65
2022/12/15 02:46:06;;;;;;;4.57;4.27;;;0.70;99.90;;;;;;4946038;28;20226;-63
2022/12/15 02:48:43;;;;;;;5.00;4.70;;;0.60;99.90;;;;;;4928370;28;20227;-63
2022/12/15 02:51:29;;;;;;;4.25;3.97;;;0.60;99.90;;;;;;4936956;29;20218;-64
2022/12/15 02:54:16;;;;;;;4.27;4.07;;;0.60;99.90;;;;;;4972142;28;20717;-63
2022/12/15 02:56:51;;;;;;;4.43;4.17;;;0.60;99.90;;;;;;4932946;28;20231;-63
2022/12/15 02:59:25;;;;;;;4.50;4.20;;;0.60;99.90;;;;;;4934042;28;20295;-63
2022/12/15 03:01:56;;;;;;;4.53;4.23;;;0.50;99.90;;;;;;4930672;29;20212;-62
2022/12/15 03:04:25;;;;;;;5.03;4.73;;;0.50;99.90;;;;;;4933412;29;20303;-62
2022/12/15 03:06:55;;;;;;;4.30;4.10;;;0.60;99.90;;;;;;4933410;29;20641;-63
2022/12/15 03:09:22;;;;;;;4.33;4.03;;;0.60;99.90;;;;;;4933701;29;20219;-63
2022/12/15 03:11:49;;;;;;;4.80;4.50;;;0.60;99.90;;;;;;4933362;29;20230;-62
2022/12/15 03:14:16;;;;;;;5.00;4.70;;;0.70;99.90;;;;;;4925589;29;20208;-63
2022/12/15 03:16:43;;;;;;;4.70;4.40;;;0.80;99.90;;;;;;4934212;28;20335;-65
2022/12/15 03:19:11;;;;;;;4.43;4.13;;;0.80;99.90;;;;;;4943312;28;20303;-64
2022/12/15 03:21:38;;;;;;;4.70;4.40;;;0.90;99.90;;;;;;4933607;29;20215;-65
2022/12/15 03:24:05;;;;;;;5.00;4.70;;;0.90;99.90;;;;;;4932749;28;20212;-64
2022/12/15 03:26:32;;;;;;;4.33;4.13;;;0.90;99.90;;;;;;4933080;29;20287;-65
2022/12/15 03:28:59;;;;;;;5.00;4.70;;;0.90;99.90;;;;;;4931260;28;20705;-63
2022/12/15 03:31:26;;;;;;;4.83;4.53;;;0.90;99.90;;;;;;4933059;28;20299;-64
2022/12/15 03:33:54;;;;;;;4.80;4.50;;;0.80;99.90;;;;;;4932626;29;20683;-64
2022/12/15 03:36:22;;;;;;;4.23;4.00;;;0.80;99.90;;;;;;4932741;28;20224;-63
2022/12/15 03:38:49;;;;;;;4.27;4.07;;;0.90;99.90;;;;;;4933056;29;20236;-64
2022/12/15 03:41:16;;;;;;;4.40;4.20;;;0.90;99.90;;;;;;4933585;28;20215;-63
2022/12/15 03:43:45;;;;;;;4.43;4.13;;;1.00;99.90;;;;;;4932788;28;20269;-63
2022/12/15 03:46:11;;;;;;;4.47;4.27;;;1.00;99.90;;;;;;4932681;28;20291;-64
2022/12/15 03:48:38;;;;;;;4.70;4.40;;;1.10;99.90;;;;;;4933186;28;20576;-62
2022/12/15 03:51:05;;;;;;;4.37;4.17;;;1.10;99.90;;;;;;4932987;28;20215;-66
2022/12/15 03:53:33;;;;;;;4.60;4.30;;;1.10;99.90;;;;;;4932430;29;20303;-65
2022/12/15 03:56:00;;;;;;;4.23;4.00;;;1.10;99.90;;;;;;4933318;28;20239;-62
2022/12/15 03:58:27;;;;;;;4.47;4.17;;;1.10;99.90;;;;;;4932467;28;20315;-63
2022/12/15 04:00:55;;;;;;;4.80;4.50;;;1.10;99.90;;;;;;4959483;28;20275;-64
2022/12/15 04:03:22;;;;;;;4.50;4.20;;;1.10;99.90;;;;;;4936137;29;20213;-64
2022/12/15 04:05:49;;;;;;;5.07;4.77;;;1.10;99.90;;;;;;4942358;29;20208;-64
2022/12/15 04:08:15;;;;;;;5.07;4.77;;;0.80;99.90;;;;;;4964605;28;20224;-64
2022/12/15 04:10:44;;;;;;;4.30;4.10;;;0.70;99.90;;;;;;4936955;29;20210;-64
2022/12/15 04:13:11;;;;;;;4.90;4.60;;;0.70;99.90;;;;;;4932695;28;20214;-63
2022/12/15 04:15:39;;;;;;;5.00;4.70;;;0.70;99.90;;;;;;4931301;28;20314;-65
2022/12/15 04:18:08;;;;;;;5.23;4.93;;;0.60;99.90;;;;;;4932068;29;20236;-64
2022/12/15 04:20:35;;;;;;;5.10;4.80;;;0.40;99.90;;;;;;4927101;28;20209;-64
2022/12/15 04:23:02;;;;;;;5.30;5.00;;;0.30;99.90;;;;;;4928659;28;20205;-64
2022/12/15 05:31:47;;;;;;;5.13;4.77;;;0.80;99.90;;;;;;4929053;29;20207;-64
2022/12/15 05:34:16;;;;;;;4.80;4.53;;;0.70;99.90;;;;;;4959748;28;20213;-62
2022/12/15 05:36:43;;;;;;;4.90;4.60;;;0.80;99.90;;;;;;4936457;28;20913;-65
2022/12/15 05:39:10;;;;;;;5.30;5.00;;;0.80;99.90;;;;;;4931359;28;20208;-64
2022/12/15 05:41:36;;;;;;;4.10;3.90;;;0.80;99.90;;;;;;4931619;28;20204;-63
2022/12/15 05:44:03;;;;;;;5.03;4.70;;;0.80;99.90;;;;;;4930582;29;20207;-63
2022/12/15 05:46:30;;;;;;;5.90;5.60;;;0.90;99.90;;;;;;4931115;29;20246;-63
2022/12/15 05:48:57;;;;;;;7.23;6.73;;;0.80;99.90;;;;;;4931484;29;20224;-63
2022/12/15 05:51:25;;;;;;;6.23;5.83;;;0.80;99.90;;;;;;4930207;29;20204;-64
2022/12/15 05:53:52;;;;;;;5.83;5.43;;;0.80;99.90;;;;;;4930974;29;20751;-64
2022/12/15 05:56:19;;;;;;;5.80;5.50;;;0.80;99.90;;;;;;4931301;29;20235;-63
2022/12/15 05:58:45;;;;;;;5.30;5.00;;;0.70;99.90;;;;;;4934772;28;20231;-64
2022/12/15 06:01:14;;;;;;;5.83;5.43;;;0.70;99.90;;;;;;4934023;29;20210;-63
2022/12/15 06:03:42;;;;;;;5.10;4.80;;;0.60;99.90;;;;;;4926290;28;20214;-65
2022/12/15 06:06:10;;;;;;;5.07;4.77;;;0.60;99.90;;;;;;4932104;29;20303;-63
2022/12/15 06:08:40;;;;;;;4.97;4.67;;;0.60;99.90;;;;;;4937415;29;20287;-64
2022/12/15 06:11:07;;;;;;;5.07;4.77;;;0.60;99.90;;;;;;4938379;29;20358;-63
2022/12/15 06:13:34;;;;;;;5.33;4.93;;;0.60;99.90;;;;;;4930812;29;20200;-63
2022/12/15 06:16:03;;;;;;;4.30;4.00;;;0.50;99.90;;;;;;4930641;29;20223;-64
2022/12/15 06:18:32;;;;;;;5.97;5.57;;;0.50;99.90;;;;;;4927342;28;20235;-64
2022/12/15 06:21:00;;;;;;;5.07;4.67;;;0.50;99.90;;;;;;4930243;29;20200;-64
2022/12/15 06:23:29;;;;;;;4.87;4.57;;;0.40;99.90;;;;;;4945558;28;20290;-63
2022/12/15 06:25:57;;;;;;;5.07;4.68;;;0.40;99.90;;;;;;4923191;28;20761;-64
2022/12/15 06:28:24;;;;;;;4.83;4.47;;;0.50;99.90;;;;;;4933186;28;20230;-64
2022/12/15 06:30:52;;;;;;;4.83;4.53;;;0.60;99.90;;;;;;4936433;28;20208;-70
2022/12/15 06:33:20;;;;;;;4.87;4.57;;;0.70;99.90;;;;;;4933246;28;20212;-63
2022/12/15 06:35:46;;;;;;;5.63;5.03;;;0.70;99.90;;;;;;4928408;28;20307;-62
2022/12/15 06:38:13;;;;;;;5.23;4.93;;;0.60;99.90;;;;;;4933735;28;20231;-63
2022/12/15 06:40:41;;;;;;;5.23;4.93;;;0.60;99.90;;;;;;4938494;29;20307;-64
2022/12/15 06:43:09;;;;;;;26.00;24.10;;;0.60;99.90;;;;;;4943147;28;20306;-63
2022/12/15 06:45:36;;;;;;;5.10;4.80;;;0.50;99.90;;;;;;4935495;28;20246;-64
2022/12/15 06:48:02;;;;;;;5.37;5.07;;;0.50;99.90;;;;;;4947952;28;20228;-65
2022/12/15 06:50:30;;;;;;;5.00;4.70;;;0.50;99.90;;;;;;4944071;29;20303;-64
2022/12/15 06:52:58;;;;;;;4.50;4.20;;;0.60;99.90;;;;;;4934211;28;20923;-64
2022/12/15 06:55:25;;;;;;;4.87;4.57;;;0.70;99.90;;;;;;4934738;28;20290;-64
2022/12/15 06:57:52;;;;;;;5.27;4.97;;;0.80;99.90;;;;;;4937172;29;20224;-62
2022/12/15 07:00:21;;;;;;;4.67;4.37;;;0.90;99.90;;;;;;4938857;28;20302;-63
2022/12/15 07:02:47;;;;;;;4.73;4.43;;;0.90;99.90;;;;;;4934009;29;20315;-63
2022/12/15 07:05:15;;;;;;;4.60;4.30;;;0.90;99.90;;;;;;4929443;28;20554;-63
2022/12/15 07:07:42;;;;;;;5.10;4.80;;;1.00;99.90;;;;;;4931058;28;20657;-62
2022/12/15 07:10:10;;;;;;;5.67;5.27;;;1.10;99.90;;;;;;4928395;28;20244;-62
2022/12/15 07:12:38;;;;;;;5.03;4.77;;;1.00;99.90;;;;;;4932991;28;20212;-62
2022/12/15 07:15:06;;;;;;;5.40;5.10;;;0.90;99.90;;;;;;4933307;29;20215;-64
2022/12/15 07:17:35;;;;;;;5.70;5.30;;;0.80;99.90;;;;;;4930705;28;20239;-63
2022/12/15 07:20:02;;;;;;;5.67;5.27;;;0.70;99.90;;;;;;4929949;28;20204;-62
2022/12/15 07:22:29;;;;;;;5.60;5.30;;;0.70;99.90;;;;;;4922727;28;20574;-65
2022/12/15 07:24:56;;;;;;;5.17;4.87;;;0.60;99.90;;;;;;4930774;29;20204;-63
2022/12/15 07:27:23;;;;;;;5.57;5.07;;;0.50;99.90;;;;;;4930985;28;20224;-63
2022/12/15 07:29:50;;;;;;;5.60;5.20;;;0.50;99.90;;;;;;4926135;29;20217;-63
2022/12/15 07:32:17;;;;;;;5.20;4.90;;;0.50;99.90;;;;;;4929231;28;20307;-65
2022/12/15 07:34:45;;;;;;;5.20;4.90;;;0.40;99.90;;;;;;4929911;28;20218;-65
2022/12/15 07:37:12;;;;;;;4.50;4.20;;;0.50;99.90;;;;;;4930579;29;20232;-64
2022/12/15 07:39:38;;;;;;;4.63;4.33;;;0.50;99.90;;;;;;4930527;28;20681;-63
2022/12/15 07:42:05;;;;;;;5.37;5.07;;;0.60;99.90;;;;;;4925334;29;20223;-65
2022/12/15 07:44:32;;;;;;;6.50;6.10;;;0.60;99.90;;;;;;4929154;29;20569;-63
2022/12/15 07:46:59;;;;;;;6.70;6.23;;;0.60;99.90;;;;;;4931025;28;20204;-65
2022/12/15 07:49:26;;;;;;;6.00;5.60;;;0.60;99.90;;;;;;4943120;28;20204;-64
2022/12/15 07:51:57;;;;;;;5.30;5.00;;;0.60;99.90;;;;;;4928056;29;20212;-65
2022/12/15 07:54:25;;;;;;;6.17;5.77;;;0.50;99.90;;;;;;4927749;28;20234;-63
2022/12/15 07:56:52;;;;;;;6.17;5.70;;;0.50;99.90;;;;;;4917784;29;20582;-63
2022/12/15 07:59:19;;;;;;;5.73;5.33;;;0.60;99.90;;;;;;4918576;28;20209;-65
2022/12/15 08:01:46;;;;;;;5.97;5.57;;;0.60;99.90;;;;;;4924162;29;20212;-64
2022/12/15 08:04:13;;;;;;;6.50;5.90;;;0.50;99.90;;;;;;4928968;28;20212;-63
2022/12/15 08:06:40;;;;;;;5.97;5.57;;;0.50;99.90;;;;;;4924891;28;20580;-63
2022/12/15 08:09:09;;;;;;;5.90;5.37;;;0.50;99.90;;;;;;4937305;29;20267;-63
2022/12/15 08:11:37;;;;;;;6.03;5.57;;;0.60;99.90;;;;;;4947112;28;20231;-63
2022/12/15 08:14:04;;;;;;;6.17;5.67;;;0.60;99.90;;;;;;4945551;28;20311;-63
2022/12/15 08:16:33;;;;;;;5.32;4.97;;;0.60;99.90;;;;;;4938046;28;20723;-63
2022/12/15 08:19:00;;;;;;;5.43;5.03;;;0.60;99.90;;;;;;4938799;28;20239;-66
2022/12/15 08:21:26;;;;;;;4.97;4.67;;;0.70;99.90;;;;;;4940507;28;20200;-62
2022/12/15 08:23:53;;;;;;;6.13;5.63;;;0.60;99.90;;;;;;4936994;28;20303;-63
2022/12/15 08:26:22;;;;;;;6.00;5.60;;;0.60;99.90;;;;;;4930179;28;20266;-64
2022/12/15 08:28:49;;;;;;;6.23;5.80;;;0.40;99.90;;;;;;4929814;28;20262;-63
2022/12/15 08:31:19;;;;;;;5.90;5.50;;;0.40;99.90;;;;;;4931308;28;20212;-62
2022/12/15 08:33:47;;;;;;;5.63;5.23;;;0.40;99.90;;;;;;4928894;28;20197;-62
2022/12/15 08:36:17;;;;;;;6.10;5.70;;;0.50;99.90;;;;;;4931998;28;20236;-63
2022/12/15 08:38:46;;;;;;;5.50;5.10;;;0.60;99.90;;;;;;4942441;28;20295;-63
2022/12/15 08:41:14;;;;;;;5.13;4.83;;;0.60;99.90;;;;;;4941968;29;20208;-61
2022/12/15 08:43:43;;;;;;;5.93;5.50;;;0.70;99.90;;;;;;4937787;28;20212;-62
2022/12/15 08:46:11;;;;;;;5.57;5.17;;;0.80;99.90;;;;;;4939601;28;20205;-62
2022/12/15 08:48:38;;;;;;;5.37;5.07;;;1.00;99.90;;;;;;4937364;28;20697;-62
2022/12/15 08:51:06;;;;;;;5.47;5.07;;;1.10;99.90;;;;;;4928801;28;20235;-63
2022/12/15 08:53:33;;;;;;;5.40;5.10;;;1.20;99.90;;;;;;4930605;29;20215;-62
2022/12/15 08:56:03;;;;;;;5.97;5.57;;;1.30;99.90;;;;;;4934341;28;20201;-63
2022/12/15 08:58:30;;;;;;;6.07;5.67;;;1.30;99.90;;;;;;4930292;28;20220;-63
2022/12/15 09:01:01;;;;;;;5.53;5.23;;;1.40;99.90;;;;;;4938576;28;20304;-63
2022/12/15 09:03:28;;;;;;;5.93;5.53;;;1.40;99.90;;;;;;4940096;29;20291;-63
2022/12/15 09:05:56;;;;;;;6.40;5.97;;;1.30;99.90;;;;;;4931254;28;20204;-63
2022/12/15 09:08:23;;;;;;;6.93;6.53;;;1.40;99.90;;;;;;4934285;28;20737;-63
2022/12/15 09:10:51;;;;;;;6.13;5.73;;;1.40;99.90;;;;;;4938942;28;20238;-64
2022/12/15 09:13:18;;;;;;;5.97;5.57;;;1.40;99.90;;;;;;4926764;29;20618;-63
2022/12/15 09:15:44;;;;;;;5.33;5.03;;;1.50;99.90;;;;;;4929288;28;20211;-63
2022/12/15 09:18:13;;;;;;;5.70;5.30;;;1.50;99.90;;;;;;4929902;28;20224;-63
2022/12/15 09:20:39;;;;;;;6.40;6.00;;;1.50;99.90;;;;;;4930028;29;20560;-63
2022/12/15 09:23:06;;;;;;;6.80;6.20;;;1.50;99.90;;;;;;4929552;28;20216;-64
2022/12/15 09:25:33;;;;;;;6.83;6.33;;;1.60;99.90;;;;;;4929814;28;20214;-63
2022/12/15 09:28:00;;;;;;;6.70;6.07;;;1.60;99.90;;;;;;4925392;29;20232;-64
2022/12/15 09:30:27;;;;;;;6.70;6.30;;;1.60;99.90;;;;;;4924904;28;20307;-63
2022/12/15 09:32:54;;;;;;;6.63;6.23;;;1.50;99.90;;;;;;4929199;28;20200;-64
2022/12/15 09:35:22;;;;;;;6.73;6.33;;;1.50;99.90;;;;;;4926540;29;20212;-63
2022/12/15 09:37:49;;;;;;;6.20;5.80;;;1.50;99.90;;;;;;4927366;28;20306;-63
2022/12/15 09:40:16;;;;;;;7.00;6.50;;;1.60;99.90;;;;;;4929064;29;20253;-62
2022/12/15 09:42:53;;;;;;;5.50;5.13;;;1.60;99.90;;;;;;4929591;28;20218;-63
2022/12/15 09:45:25;;;;;;;5.90;5.50;;;1.70;99.90;;;;;;4929682;28;20539;-63
2022/12/15 09:47:56;;;;;;;6.47;6.10;;;1.70;99.90;;;;;;4928060;29;20252;-62
2022/12/15 09:50:33;;;;;;;7.07;6.47;;;1.60;99.90;;;;;;4929940;28;20218;-63
2022/12/15 09:53:02;;;;;;;5.67;5.27;;;1.60;99.90;;;;;;4927737;28;20208;-63
2022/12/15 09:55:31;;;;;;;5.53;5.23;;;1.70;99.90;;;;;;4927319;28;20299;-63
2022/12/15 09:58:02;;;;;;;7.03;6.53;;;1.80;99.90;;;;;;4929544;28;20224;-64
2022/12/15 10:00:34;;;;;;;6.50;6.10;;;1.70;99.90;;;;;;4927257;29;20199;-64
2022/12/15 10:03:33;;;;;;;7.03;6.47;;;1.50;99.90;;;;;;4927835;28;20204;-63
2022/12/15 10:06:09;;;;;;;6.03;5.63;;;1.20;99.90;;;;;;4926951;29;20516;-64
2022/12/15 10:08:39;;;;;;;6.50;6.00;;;1.20;99.90;;;;;;4931303;29;20220;-63
2022/12/15 10:11:16;;;;;;;6.87;6.37;;;1.30;99.90;;;;;;4927385;28;20626;-64
2022/12/15 10:13:52;;;;;;;6.67;6.27;;;1.60;99.90;;;;;;4927490;29;20235;-63
2022/12/15 10:16:24;;;;;;;6.63;6.20;;;1.70;99.90;;;;;;4926023;28;20230;-62
2022/12/15 10:18:58;;;;;;;6.57;6.17;;;1.70;99.90;;;;;;4927466;28;20230;-64
2022/12/15 10:21:28;;;;;;;6.03;5.63;;;1.50;99.90;;;;;;4924443;29;20210;-63
2022/12/15 10:23:59;;;;;;;6.27;5.87;;;1.80;99.90;;;;;;4926871;29;20841;-65
2022/12/15 10:26:31;;;;;;;6.77;6.27;;;2.00;99.90;;;;;;4927440;28;20684;-64
2022/12/15 10:29:18;;;;;;;6.23;5.83;;;2.00;99.90;;;;;;4925257;28;20237;-63
2022/12/15 10:31:51;;;;;;;6.63;6.13;;;1.90;99.90;;;;;;4925638;29;20236;-64
2022/12/15 10:34:26;;;;;;;6.17;5.80;;;2.00;99.90;;;;;;4926369;28;20204;-63
2022/12/15 10:36:55;;;;;;;6.20;5.80;;;2.10;99.90;;;;;;4938405;29;20247;-63
2022/12/15 10:39:23;;;;;;;6.57;6.17;;;1.90;99.90;;;;;;4935875;28;20208;-63
2022/12/15 10:42:11;;;;;;;7.07;6.57;;;1.70;99.90;;;;;;4926964;28;20208;-62
2022/12/15 10:44:40;;;;;;;6.77;6.27;;;1.80;99.90;;;;;;4926365;29;20200;-66
2022/12/15 10:47:11;;;;;;;6.43;6.00;;;2.00;99.90;;;;;;4929381;28;20311;-62
2022/12/15 10:49:38;;;;;;;6.40;6.00;;;2.00;99.90;;;;;;4928617;29;20208;-65
2022/12/15 10:52:19;;;;;;;6.30;5.90;;;1.90;99.90;;;;;;4928360;28;20208;-64
2022/12/15 10:54:48;;;;;;;6.70;6.20;;;1.90;99.90;;;;;;4927541;28;20238;-64
2022/12/15 10:57:18;;;;;;;6.43;6.03;;;1.90;99.90;;;;;;4926374;28;20236;-63
2022/12/15 10:59:45;;;;;;;5.37;5.07;;;1.90;99.90;;;;;;4928866;28;20204;-64
2022/12/15 11:02:32;;;;;;;6.43;6.03;;;1.90;99.90;;;;;;4929761;28;20592;-64
2022/12/15 11:05:01;;;;;;;6.10;5.77;;;1.90;99.90;;;;;;4928626;29;20204;-66
2022/12/15 11:07:35;;;;;;;6.83;6.43;;;1.90;99.90;;;;;;4930526;28;20220;-63
2022/12/15 11:10:16;;;;;;;7.10;6.60;;;1.80;99.90;;;;;;4928448;28;20212;-63
2022/12/15 11:12:52;;;;;;;7.30;6.80;;;1.60;99.90;;;;;;4928557;29;20196;-63
2022/12/15 11:15:51;;;;;;;7.03;6.53;;;1.30;99.90;;;;;;4928586;28;20204;-63
2022/12/15 11:18:27;;;;;;;6.47;6.07;;;1.10;99.90;;;;;;4935891;29;20676;-65
2022/12/15 11:21:00;;;;;;;7.00;6.50;;;1.20;99.90;;;;;;4932623;29;20607;-63
2022/12/15 11:23:41;;;;;;;7.00;6.50;;;1.30;99.90;;;;;;4933085;28;20210;-64
2022/12/15 11:26:22;;;;;;;6.80;6.40;;;1.40;99.90;;;;;;4934326;29;20212;-63
2022/12/15 11:28:56;;;;;;;7.50;7.00;;;1.40;99.90;;;;;;4933877;28;20247;-63
2022/12/15 11:31:29;;;;;;;8.63;8.03;;;1.40;99.90;;;;;;4934131;28;20633;-63
2022/12/15 11:33:56;;;;;;;8.40;7.80;;;1.30;99.90;;;;;;4930939;29;20200;-62
2022/12/15 11:36:41;;;;;;;8.37;7.77;;;1.30;99.90;;;;;;4934338;29;20219;-62
2022/12/15 11:39:19;;;;;;;7.60;7.10;;;1.40;99.90;;;;;;4930547;28;20228;-62
2022/12/15 11:41:54;;;;;;;7.40;6.90;;;1.40;99.90;;;;;;4933601;29;20673;-62
2022/12/15 11:44:27;;;;;;;8.00;7.50;;;1.60;99.90;;;;;;4933083;28;20211;-62
2022/12/15 11:47:10;;;;;;;6.97;6.57;;;1.80;99.90;;;;;;4933022;28;20294;-63
2022/12/15 11:50:04;;;;;;;8.27;7.67;;;1.90;99.90;;;;;;4925967;29;20200;-63
2022/12/15 11:52:50;;;;;;;7.30;6.80;;;2.00;99.90;;;;;;4925389;29;20218;-63
2022/12/15 11:55:23;;;;;;;7.23;6.83;;;2.10;99.90;;;;;;4934054;29;20653;-64
2022/12/15 11:58:30;;;;;;;8.00;7.50;;;2.10;99.90;;;;;;4932488;29;20607;-63
2022/12/15 12:01:06;;;;;;;7.70;7.20;;;2.20;99.90;;;;;;4930291;29;20755;-63
2022/12/15 12:03:42;;;;;;;7.23;6.73;;;2.40;99.90;;;;;;4931113;29;20218;-63
2022/12/15 12:06:13;;;;;;;6.93;6.50;;;2.50;99.90;;;;;;4937240;28;20258;-63
2022/12/15 12:09:20;;;;;;;6.50;6.10;;;2.60;99.90;;;;;;4942458;28;20263;-62
2022/12/15 12:11:53;;;;;;;6.57;6.17;;;2.70;99.90;;;;;;4935770;28;20208;-65
2022/12/15 12:14:34;;;;;;;7.17;6.67;;;2.60;99.90;;;;;;4932149;28;20218;-63
2022/12/15 12:17:06;;;;;;;8.40;7.80;;;2.30;99.90;;;;;;4930842;28;20300;-63
2022/12/15 12:19:40;;;;;;;7.27;6.77;;;2.30;99.90;;;;;;4928478;28;20204;-62
2022/12/15 12:22:14;;;;;;;7.87;7.37;;;2.20;99.90;;;;;;4931085;29;20224;-61
2022/12/15 12:24:45;;;;;;;8.03;7.53;;;2.00;99.90;;;;;;4931936;28;20239;-65
2022/12/15 12:27:24;;;;;;;7.60;7.10;;;1.90;99.90;;;;;;4930628;28;20311;-64
2022/12/15 12:29:55;;;;;;;7.87;7.37;;;1.90;99.90;;;;;;4928887;29;20226;-63
2022/12/15 12:32:30;;;;;;;7.03;6.53;;;2.00;99.90;;;;;;4928770;28;20215;-63
2022/12/15 12:35:02;;;;;;;7.00;6.53;;;2.10;99.90;;;;;;4926926;28;20211;-63
2022/12/15 12:37:39;;;;;;;7.57;7.07;;;2.20;99.90;;;;;;4926669;28;20234;-64
2022/12/15 12:40:17;;;;;;;7.77;7.27;;;2.30;99.90;;;;;;4942350;28;20247;-63
2022/12/15 12:42:53;;;;;;;7.80;7.30;;;2.30;99.90;;;;;;5011040;28;20749;-64
2022/12/15 12:45:24;;;;;;;7.93;7.43;;;2.20;99.90;;;;;;5012258;28;20231;-66
2022/12/15 12:47:54;;;;;;;7.97;7.47;;;2.00;99.90;;;;;;5025170;28;20263;-63
2022/12/15 12:50:22;;;;;;;7.50;7.00;;;2.00;99.90;;;;;;5012536;28;20524;-65
2022/12/15 12:52:52;;;;;;;7.43;6.93;;;2.00;99.90;;;;;;5010111;28;20205;-65
2022/12/15 12:55:29;;;;;;;7.17;6.70;;;2.00;99.90;;;;;;5015604;28;20292;-65
2022/12/15 12:57:57;;;;;;;7.63;7.13;;;2.10;99.90;;;;;;5006153;28;20228;-64
2022/12/15 13:00:27;;;;;;;7.43;6.93;;;2.20;99.90;;;;;;5011888;28;20202;-64
2022/12/15 13:03:15;;;;;;;7.50;7.00;;;2.20;99.90;;;;;;5011715;28;20201;-64
2022/12/15 13:05:42;;;;;;;8.33;7.73;;;2.20;99.90;;;;;;5010007;28;20208;-66
2022/12/15 13:08:50;;;;;;;8.27;7.67;;;2.20;99.90;;;;;;5009081;28;20217;-63
2022/12/15 13:11:57;;;;;;;8.27;7.67;;;2.10;99.90;;;;;;5009978;28;20205;-62
2022/12/15 13:14:35;;;;;;;8.63;8.03;;;2.00;99.90;;;;;;5009049;28;20201;-62
2022/12/15 13:17:06;;;;;;;8.40;7.90;;;1.80;99.90;;;;;;5008375;28;20661;-64
2022/12/15 13:20:09;;;;;;;8.07;7.57;;;1.70;99.90;;;;;;5006910;28;20194;-62
2022/12/15 13:22:38;;;;;;;7.53;7.03;;;1.70;99.90;;;;;;5004513;28;20213;-62
2022/12/15 13:25:27;;;;;;;7.07;6.57;;;1.70;99.90;;;;;;5009105;28;20725;-62
2022/12/15 13:27:59;;;;;;;7.17;6.67;;;1.80;99.90;;;;;;5009307;28;20986;-63
2022/12/15 13:30:27;;;;;;;7.73;7.20;;;1.90;99.90;;;;;;5008044;28;20209;-63
2022/12/15 13:33:13;;;;;;;7.57;7.07;;;2.00;99.90;;;;;;5008184;28;20205;-64
2022/12/15 13:35:42;;;;;;;7.70;7.20;;;1.90;99.90;;;;;;5003994;28;20223;-63
2022/12/15 13:38:17;;;;;;;8.03;7.50;;;1.90;99.90;;;;;;5008596;28;20233;-64
2022/12/15 13:40:52;;;;;;;7.50;7.00;;;1.80;99.90;;;;;;5009474;28;20204;-63
2022/12/15 13:43:41;;;;;;;7.73;7.23;;;1.90;99.90;;;;;;5004497;28;20197;-63
2022/12/15 13:46:16;;;;;;;7.87;7.37;;;1.90;99.90;;;;;;5009222;28;20229;-64
2022/12/15 13:48:45;;;;;;;7.70;7.20;;;1.90;99.90;;;;;;5009867;28;20221;-63
2022/12/15 13:51:24;;;;;;;6.33;5.87;;;1.90;99.90;;;;;;5008803;28;20205;-63
2022/12/15 13:53:57;;;;;;;6.63;6.23;;;1.90;99.90;;;;;;5007615;28;20240;-63
2022/12/15 13:56:41;;;;;;;7.17;6.67;;;2.00;99.90;;;;;;5007083;28;20608;-63
2022/12/15 13:59:18;;;;;;;6.40;6.00;;;2.00;99.90;;;;;;5007431;28;20335;-64
2022/12/15 14:01:51;;;;;;;6.60;6.20;;;2.10;99.90;;;;;;5007445;28;20212;-65
2022/12/15 14:04:19;;;;;;;6.70;6.30;;;2.10;99.90;;;;;;5008654;28;20208;-64
2022/12/15 14:06:49;;;;;;;7.07;6.67;;;2.30;99.90;;;;;;5012346;28;20282;-64
2022/12/15 14:09:19;;;;;;;6.83;6.40;;;2.40;99.90;;;;;;5014622;28;20199;-64
2022/12/15 14:11:48;;;;;;;6.60;6.20;;;2.40;99.90;;;;;;5011505;28;20197;-65
2022/12/15 14:14:19;;;;;;;7.73;7.23;;;2.40;99.90;;;;;;5010033;28;20796;-65
2022/12/15 14:16:51;;;;;;;7.13;6.63;;;2.30;99.90;;;;;;5008714;28;20263;-65
2022/12/15 14:19:19;;;;;;;6.50;6.00;;;2.20;99.90;;;;;;5012153;28;20223;-65
2022/12/15 14:21:53;;;;;;;6.83;6.43;;;2.30;99.90;;;;;;5006935;28;20202;-64
2022/12/15 14:24:29;;;;;;;6.80;6.30;;;2.40;99.90;;;;;;5008001;28;20934;-65
2022/12/15 14:26:56;;;;;;;8.10;7.60;;;2.50;99.90;;;;;;5011471;28;20204;-64
2022/12/15 14:29:24;;;;;;;8.10;7.60;;;2.40;99.90;;;;;;5011340;28;20213;-65
2022/12/15 14:31:54;;;;;;;7.90;7.30;;;2.30;99.90;;;;;;5010478;28;20212;-64
2022/12/15 14:34:29;;;;;;;8.23;7.63;;;2.30;99.90;;;;;;5010698;28;20293;-62
2022/12/15 14:37:01;;;;;;;8.87;8.27;;;2.30;99.90;;;;;;5006166;28;20205;-65
2022/12/15 14:39:33;;;;;;;9.00;8.40;;;2.30;99.90;;;;;;5008245;28;20387;-64
2022/12/15 14:42:01;;;;;;;7.67;7.17;;;2.30;99.90;;;;;;5002434;28;20209;-65
2022/12/15 14:44:34;;;;;;;7.27;6.77;;;2.20;99.90;;;;;;5010849;28;20228;-62
2022/12/15 14:47:04;;;;;;;7.10;6.67;;;2.20;99.90;;;;;;5009362;28;20205;-62
2022/12/15 14:49:37;;;;;;;7.20;6.70;;;2.20;99.90;;;;;;5010498;28;20259;-63
2022/12/15 14:52:06;;;;;;;6.87;6.47;;;2.10;99.90;;;;;;5012023;28;20569;-64
2022/12/15 14:54:36;;;;;;;6.60;6.20;;;2.10;99.90;;;;;;5012987;28;20220;-64
2022/12/15 14:57:14;;;;;;;7.23;6.77;;;2.10;99.90;;;;;;5017368;28;20217;-65
2022/12/15 14:59:43;;;;;;;7.60;7.10;;;2.10;99.90;;;;;;5015870;28;20585;-64
2022/12/15 15:02:14;;;;;;;7.00;6.50;;;2.00;99.90;;;;;;5009589;28;20304;-63
2022/12/15 15:04:42;;;;;;;6.57;6.17;;;2.00;99.90;;;;;;5012024;28;20768;-64
2022/12/15 15:07:17;;;;;;;7.67;7.10;;;2.00;99.90;;;;;;5008787;28;20222;-63
2022/12/15 15:09:46;;;;;;;8.17;7.67;;;2.00;99.90;;;;;;5010574;28;20219;-63
2022/12/15 15:12:16;;;;;;;7.70;7.20;;;2.00;99.90;;;;;;5005822;28;20202;-63
2022/12/15 15:14:45;;;;;;;7.40;6.90;;;2.00;99.90;;;;;;5009979;28;20206;-64
2022/12/15 15:17:22;;;;;;;7.83;7.33;;;2.00;99.90;;;;;;5012770;28;20264;-63
2022/12/15 15:19:53;;;;;;;6.97;6.47;;;2.10;99.90;;;;;;5009918;28;20219;-65
2022/12/15 15:22:30;;;;;;;7.93;7.33;;;2.20;99.90;;;;;;5011809;28;20201;-64
2022/12/15 15:24:57;;;;;;;7.40;6.90;;;2.30;99.90;;;;;;5007242;28;20684;-65
2022/12/15 15:27:26;;;;;;;7.57;7.07;;;2.30;99.90;;;;;;5010136;28;20229;-64
2022/12/15 15:30:06;;;;;;;8.10;7.60;;;2.30;99.90;;;;;;5011060;28;20542;-65
2022/12/15 15:32:32;;;;;;;7.40;6.90;;;2.20;99.90;;;;;;5007279;28;20216;-64
2022/12/15 15:35:00;;;;;;;7.03;6.60;;;2.30;99.90;;;;;;5012533;28;20201;-64